sensor_id;sensor_type;location;lat;lon;timestamp;temperature;humidity
40534;DHT22;26233;51.894;10.192;2023-02-04T00:00:12;8.00;52.30
40534;DHT22;26233;51.894;10.192;2023-02-04T00:02:41;8.00;52.30
40534;DHT22;26233;51.894;10.192;2023-02-04T00:05:09;8.00;52.40
40534;DHT22;26233;51.894;10.192;2023-02-04T00:07:37;7.90;52.40
40534;DHT22;26233;51.894;10.192;2023-02-04T00:10:05;7.90;52.50
40534;DHT22;26233;51.894;10.192;2023-02-04T00:12:34;7.90;52.50
40534;DHT22;26233;51.894;10.192;2023-02-04T00:15:02;7.90;52.60
40534;DHT22;26233;51.894;10.192;2023-02-04T00:17:29;7.90;52.60
40534;DHT22;26233;51.894;10.192;2023-02-04T00:19:56;7.90;52.60
40534;DHT22;26233;51.894;10.192;2023-02-04T00:22:23;7.90;52.60
40534;DHT22;26233;51.894;10.192;2023-02-04T00:24:53;7.90;52.70
40534;DHT22;26233;51.894;10.192;2023-02-04T00:27:20;7.90;52.70
40534;DHT22;26233;51.894;10.192;2023-02-04T00:29:48;7.90;52.80
40534;DHT22;26233;51.894;10.192;2023-02-04T00:32:16;7.90;52.80
40534;DHT22;26233;51.894;10.192;2023-02-04T00:34:43;7.90;52.80
40534;DHT22;26233;51.894;10.192;2023-02-04T00:37:10;7.90;52.70
40534;DHT22;26233;51.894;10.192;2023-02-04T00:39:37;7.90;52.70
40534;DHT22;26233;51.894;10.192;2023-02-04T00:42:04;7.90;52.70
40534;DHT22;26233;51.894;10.192;2023-02-04T00:44:31;7.90;52.60
40534;DHT22;26233;51.894;10.192;2023-02-04T00:46:59;7.90;52.60
40534;DHT22;26233;51.894;10.192;2023-02-04T00:49:26;7.80;52.50
40534;DHT22;26233;51.894;10.192;2023-02-04T00:51:53;7.80;52.50
40534;DHT22;26233;51.894;10.192;2023-02-04T00:54:20;7.80;52.50
40534;DHT22;26233;51.894;10.192;2023-02-04T00:56:47;7.80;52.50
40534;DHT22;26233;51.894;10.192;2023-02-04T00:59:14;7.80;52.50
40534;DHT22;26233;51.894;10.192;2023-02-04T01:01:42;7.70;52.40
40534;DHT22;26233;51.894;10.192;2023-02-04T01:04:10;7.70;52.50
40534;DHT22;26233;51.894;10.192;2023-02-04T01:06:39;7.70;52.40
40534;DHT22;26233;51.894;10.192;2023-02-04T01:09:06;7.70;52.50
40534;DHT22;26233;51.894;10.192;2023-02-04T01:11:33;7.60;52.30
40534;DHT22;26233;51.894;10.192;2023-02-04T01:14:01;7.60;52.30
40534;DHT22;26233;51.894;10.192;2023-02-04T01:16:27;7.60;52.40
40534;DHT22;26233;51.894;10.192;2023-02-04T01:18:54;7.60;52.40
40534;DHT22;26233;51.894;10.192;2023-02-04T01:21:23;7.60;52.40
40534;DHT22;26233;51.894;10.192;2023-02-04T01:23:51;7.50;52.40
40534;DHT22;26233;51.894;10.192;2023-02-04T01:26:18;7.50;52.40
40534;DHT22;26233;51.894;10.192;2023-02-04T01:28:46;7.50;52.50
40534;DHT22;26233;51.894;10.192;2023-02-04T01:31:13;7.60;52.60
40534;DHT22;26233;51.894;10.192;2023-02-04T01:33:40;7.50;52.50
40534;DHT22;26233;51.894;10.192;2023-02-04T01:36:08;7.50;52.50
40534;DHT22;26233;51.894;10.192;2023-02-04T01:38:36;7.50;52.50
40534;DHT22;26233;51.894;10.192;2023-02-04T01:41:04;7.40;52.50
40534;DHT22;26233;51.894;10.192;2023-02-04T01:43:32;7.50;52.70
40534;DHT22;26233;51.894;10.192;2023-02-04T01:45:59;7.50;53.20
40534;DHT22;26233;51.894;10.192;2023-02-04T01:48:27;7.50;52.70
40534;DHT22;26233;51.894;10.192;2023-02-04T01:51:00;7.40;52.60
40534;DHT22;26233;51.894;10.192;2023-02-04T01:53:29;7.40;52.60
40534;DHT22;26233;51.894;10.192;2023-02-04T01:55:58;7.40;52.70
40534;DHT22;26233;51.894;10.192;2023-02-04T01:58:25;7.40;52.70
40534;DHT22;26233;51.894;10.192;2023-02-04T02:00:53;7.40;52.70
40534;DHT22;26233;51.894;10.192;2023-02-04T02:03:20;7.40;52.70
40534;DHT22;26233;51.894;10.192;2023-02-04T02:05:49;7.40;52.70
40534;DHT22;26233;51.894;10.192;2023-02-04T02:08:17;7.40;52.60
40534;DHT22;26233;51.894;10.192;2023-02-04T02:10:47;7.40;52.60
40534;DHT22;26233;51.894;10.192;2023-02-04T02:13:17;7.40;52.60
40534;DHT22;26233;51.894;10.192;2023-02-04T02:15:45;7.30;52.60
40534;DHT22;26233;51.894;10.192;2023-02-04T02:18:13;7.30;52.50
40534;DHT22;26233;51.894;10.192;2023-02-04T02:20:42;7.30;52.50
40534;DHT22;26233;51.894;10.192;2023-02-04T02:23:16;7.30;52.00
40534;DHT22;26233;51.894;10.192;2023-02-04T02:25:48;7.10;51.40
40534;DHT22;26233;51.894;10.192;2023-02-04T02:28:18;7.00;51.40
40534;DHT22;26233;51.894;10.192;2023-02-04T02:30:47;6.80;51.20
40534;DHT22;26233;51.894;10.192;2023-02-04T02:33:17;6.70;51.30
40534;DHT22;26233;51.894;10.192;2023-02-04T02:35:46;6.50;51.30
40534;DHT22;26233;51.894;10.192;2023-02-04T02:38:14;6.40;51.40
40534;DHT22;26233;51.894;10.192;2023-02-04T02:40:42;6.30;51.30
40534;DHT22;26233;51.894;10.192;2023-02-04T02:43:13;6.10;51.20
40534;DHT22;26233;51.894;10.192;2023-02-04T02:45:42;6.00;51.20
40534;DHT22;26233;51.894;10.192;2023-02-04T02:48:10;5.90;51.30
40534;DHT22;26233;51.894;10.192;2023-02-04T02:50:37;5.80;51.30
40534;DHT22;26233;51.894;10.192;2023-02-04T02:53:09;5.70;51.40
40534;DHT22;26233;51.894;10.192;2023-02-04T02:55:36;5.60;51.50
40534;DHT22;26233;51.894;10.192;2023-02-04T02:58:04;5.60;51.80
40534;DHT22;26233;51.894;10.192;2023-02-04T03:00:38;5.50;52.00
40534;DHT22;26233;51.894;10.192;2023-02-04T03:03:09;5.50;52.10
40534;DHT22;26233;51.894;10.192;2023-02-04T03:05:39;5.50;52.10
40534;DHT22;26233;51.894;10.192;2023-02-04T03:08:08;5.50;52.30
40534;DHT22;26233;51.894;10.192;2023-02-04T03:10:36;5.60;52.50
40534;DHT22;26233;51.894;10.192;2023-02-04T03:13:04;5.60;52.40
40534;DHT22;26233;51.894;10.192;2023-02-04T03:15:32;5.60;52.50
40534;DHT22;26233;51.894;10.192;2023-02-04T03:18:00;5.70;52.60
40534;DHT22;26233;51.894;10.192;2023-02-04T03:20:29;5.70;52.60
40534;DHT22;26233;51.894;10.192;2023-02-04T03:22:57;5.70;52.50
40534;DHT22;26233;51.894;10.192;2023-02-04T03:25:24;5.70;52.50
40534;DHT22;26233;51.894;10.192;2023-02-04T03:27:53;5.70;52.50
40534;DHT22;26233;51.894;10.192;2023-02-04T03:30:20;5.80;52.50
40534;DHT22;26233;51.894;10.192;2023-02-04T03:32:49;5.80;52.60
40534;DHT22;26233;51.894;10.192;2023-02-04T03:35:17;5.80;52.50
40534;DHT22;26233;51.894;10.192;2023-02-04T03:37:44;5.80;52.40
40534;DHT22;26233;51.894;10.192;2023-02-04T03:40:12;5.80;52.50
40534;DHT22;26233;51.894;10.192;2023-02-04T03:42:39;5.80;52.50
40534;DHT22;26233;51.894;10.192;2023-02-04T03:45:07;5.80;52.40
40534;DHT22;26233;51.894;10.192;2023-02-04T03:47:34;5.80;52.40
40534;DHT22;26233;51.894;10.192;2023-02-04T03:50:03;5.80;52.40
40534;DHT22;26233;51.894;10.192;2023-02-04T03:52:31;5.80;52.40
40534;DHT22;26233;51.894;10.192;2023-02-04T03:54:58;5.90;52.50
40534;DHT22;26233;51.894;10.192;2023-02-04T03:57:25;5.90;52.60
40534;DHT22;26233;51.894;10.192;2023-02-04T03:59:52;5.90;52.60
40534;DHT22;26233;51.894;10.192;2023-02-04T04:02:19;5.90;52.60
40534;DHT22;26233;51.894;10.192;2023-02-04T04:04:46;5.90;52.60
40534;DHT22;26233;51.894;10.192;2023-02-04T04:07:14;6.00;52.70
40534;DHT22;26233;51.894;10.192;2023-02-04T04:09:41;6.00;52.70
40534;DHT22;26233;51.894;10.192;2023-02-04T04:12:08;6.00;52.70
40534;DHT22;26233;51.894;10.192;2023-02-04T04:14:35;6.00;52.70
40534;DHT22;26233;51.894;10.192;2023-02-04T04:17:02;6.00;52.70
40534;DHT22;26233;51.894;10.192;2023-02-04T04:19:29;6.10;52.70
40534;DHT22;26233;51.894;10.192;2023-02-04T04:21:57;6.10;52.60
40534;DHT22;26233;51.894;10.192;2023-02-04T04:24:26;6.10;52.60
40534;DHT22;26233;51.894;10.192;2023-02-04T04:26:53;6.10;52.50
40534;DHT22;26233;51.894;10.192;2023-02-04T04:29:20;6.10;52.40
40534;DHT22;26233;51.894;10.192;2023-02-04T04:31:46;6.00;52.20
40534;DHT22;26233;51.894;10.192;2023-02-04T04:34:13;6.00;52.20
40534;DHT22;26233;51.894;10.192;2023-02-04T04:36:40;5.90;52.20
40534;DHT22;26233;51.894;10.192;2023-02-04T04:39:07;5.90;52.30
40534;DHT22;26233;51.894;10.192;2023-02-04T04:41:36;5.90;52.30
40534;DHT22;26233;51.894;10.192;2023-02-04T04:44:03;5.80;52.20
40534;DHT22;26233;51.894;10.192;2023-02-04T04:46:30;5.80;52.20
40534;DHT22;26233;51.894;10.192;2023-02-04T04:48:57;5.80;52.30
40534;DHT22;26233;51.894;10.192;2023-02-04T04:51:24;5.80;52.40
40534;DHT22;26233;51.894;10.192;2023-02-04T04:53:51;5.80;52.50
40534;DHT22;26233;51.894;10.192;2023-02-04T04:56:18;5.80;52.50
40534;DHT22;26233;51.894;10.192;2023-02-04T04:58:46;5.80;52.50
40534;DHT22;26233;51.894;10.192;2023-02-04T05:01:13;5.70;52.50
40534;DHT22;26233;51.894;10.192;2023-02-04T05:03:41;5.80;52.60
40534;DHT22;26233;51.894;10.192;2023-02-04T05:06:08;5.80;52.50
40534;DHT22;26233;51.894;10.192;2023-02-04T05:08:35;5.80;52.50
40534;DHT22;26233;51.894;10.192;2023-02-04T05:11:03;5.80;52.50
40534;DHT22;26233;51.894;10.192;2023-02-04T05:13:30;5.80;52.50
40534;DHT22;26233;51.894;10.192;2023-02-04T05:15:58;5.70;52.30
40534;DHT22;26233;51.894;10.192;2023-02-04T05:18:25;5.70;52.30
40534;DHT22;26233;51.894;10.192;2023-02-04T05:20:53;5.70;52.20
40534;DHT22;26233;51.894;10.192;2023-02-04T05:23:20;5.70;52.20
40534;DHT22;26233;51.894;10.192;2023-02-04T05:25:47;5.70;52.20
40534;DHT22;26233;51.894;10.192;2023-02-04T05:28:14;5.70;52.20
40534;DHT22;26233;51.894;10.192;2023-02-04T05:30:41;5.70;52.20
40534;DHT22;26233;51.894;10.192;2023-02-04T05:33:09;5.60;52.10
40534;DHT22;26233;51.894;10.192;2023-02-04T05:35:36;5.60;52.10
40534;DHT22;26233;51.894;10.192;2023-02-04T05:38:03;5.60;52.00
40534;DHT22;26233;51.894;10.192;2023-02-04T05:40:30;5.50;51.80
40534;DHT22;26233;51.894;10.192;2023-02-04T05:42:57;5.50;51.80
40534;DHT22;26233;51.894;10.192;2023-02-04T05:45:24;5.50;51.90
40534;DHT22;26233;51.894;10.192;2023-02-04T05:47:51;5.40;51.70
40534;DHT22;26233;51.894;10.192;2023-02-04T05:50:20;5.40;51.70
40534;DHT22;26233;51.894;10.192;2023-02-04T05:52:47;5.40;51.60
40534;DHT22;26233;51.894;10.192;2023-02-04T05:55:14;5.30;51.50
40534;DHT22;26233;51.894;10.192;2023-02-04T05:57:41;5.20;51.40
40534;DHT22;26233;51.894;10.192;2023-02-04T06:00:10;5.20;51.40
40534;DHT22;26233;51.894;10.192;2023-02-04T06:02:38;5.10;51.40
40534;DHT22;26233;51.894;10.192;2023-02-04T06:05:06;5.10;51.50
40534;DHT22;26233;51.894;10.192;2023-02-04T06:07:35;5.00;51.40
40534;DHT22;26233;51.894;10.192;2023-02-04T06:10:02;5.00;51.50
40534;DHT22;26233;51.894;10.192;2023-02-04T06:12:29;4.90;51.40
40534;DHT22;26233;51.894;10.192;2023-02-04T06:14:56;4.80;51.30
40534;DHT22;26233;51.894;10.192;2023-02-04T06:17:23;4.80;51.20
40534;DHT22;26233;51.894;10.192;2023-02-04T06:19:50;4.70;51.20
40534;DHT22;26233;51.894;10.192;2023-02-04T06:22:17;4.60;51.30
40534;DHT22;26233;51.894;10.192;2023-02-04T06:24:45;4.60;51.50
40534;DHT22;26233;51.894;10.192;2023-02-04T06:27:12;4.60;51.60
40534;DHT22;26233;51.894;10.192;2023-02-04T06:29:44;4.50;51.60
40534;DHT22;26233;51.894;10.192;2023-02-04T06:32:11;4.50;51.70
40534;DHT22;26233;51.894;10.192;2023-02-04T06:34:38;4.50;51.70
40534;DHT22;26233;51.894;10.192;2023-02-04T06:37:05;4.50;52.40
40534;DHT22;26233;51.894;10.192;2023-02-04T06:39:32;4.50;51.70
40534;DHT22;26233;51.894;10.192;2023-02-04T06:42:00;4.40;51.60
40534;DHT22;26233;51.894;10.192;2023-02-04T06:44:27;4.40;51.60
40534;DHT22;26233;51.894;10.192;2023-02-04T06:46:54;4.40;52.20
40534;DHT22;26233;51.894;10.192;2023-02-04T06:49:22;4.30;51.70
40534;DHT22;26233;51.894;10.192;2023-02-04T06:51:49;4.30;51.70
40534;DHT22;26233;51.894;10.192;2023-02-04T06:54:17;4.30;51.80
40534;DHT22;26233;51.894;10.192;2023-02-04T06:56:44;4.30;51.90
40534;DHT22;26233;51.894;10.192;2023-02-04T06:59:12;4.30;51.90
40534;DHT22;26233;51.894;10.192;2023-02-04T07:01:39;4.30;52.00
40534;DHT22;26233;51.894;10.192;2023-02-04T07:04:06;4.30;52.00
40534;DHT22;26233;51.894;10.192;2023-02-04T07:06:33;4.40;52.10
40534;DHT22;26233;51.894;10.192;2023-02-04T07:09:00;4.40;52.10
40534;DHT22;26233;51.894;10.192;2023-02-04T07:11:27;4.40;52.00
40534;DHT22;26233;51.894;10.192;2023-02-04T07:13:54;4.40;52.00
40534;DHT22;26233;51.894;10.192;2023-02-04T07:16:22;4.40;52.00
40534;DHT22;26233;51.894;10.192;2023-02-04T07:18:49;4.40;52.00
40534;DHT22;26233;51.894;10.192;2023-02-04T07:21:16;4.40;52.00
40534;DHT22;26233;51.894;10.192;2023-02-04T07:23:43;4.40;52.10
40534;DHT22;26233;51.894;10.192;2023-02-04T07:26:10;4.40;52.10
40534;DHT22;26233;51.894;10.192;2023-02-04T07:28:37;4.40;52.10
40534;DHT22;26233;51.894;10.192;2023-02-04T07:31:05;4.40;52.10
40534;DHT22;26233;51.894;10.192;2023-02-04T07:33:34;4.40;52.10
40534;DHT22;26233;51.894;10.192;2023-02-04T07:36:01;4.40;52.20
40534;DHT22;26233;51.894;10.192;2023-02-04T07:38:28;4.40;52.20
40534;DHT22;26233;51.894;10.192;2023-02-04T07:40:55;4.50;52.50
40534;DHT22;26233;51.894;10.192;2023-02-04T07:43:22;4.50;52.60
40534;DHT22;26233;51.894;10.192;2023-02-04T07:45:49;4.60;52.70
40534;DHT22;26233;51.894;10.192;2023-02-04T07:48:16;4.60;52.70
40534;DHT22;26233;51.894;10.192;2023-02-04T07:50:44;4.70;52.80
40534;DHT22;26233;51.894;10.192;2023-02-04T07:53:11;4.70;52.80
40534;DHT22;26233;51.894;10.192;2023-02-04T07:55:38;4.80;53.00
40534;DHT22;26233;51.894;10.192;2023-02-04T07:58:05;4.80;52.90
40534;DHT22;26233;51.894;10.192;2023-02-04T08:00:32;4.90;53.00
40534;DHT22;26233;51.894;10.192;2023-02-04T08:02:59;4.90;52.90
40534;DHT22;26233;51.894;10.192;2023-02-04T08:05:26;4.90;52.90
40534;DHT22;26233;51.894;10.192;2023-02-04T08:07:56;5.00;52.90
40534;DHT22;26233;51.894;10.192;2023-02-04T08:10:23;5.00;52.90
40534;DHT22;26233;51.894;10.192;2023-02-04T08:12:50;5.00;53.00
40534;DHT22;26233;51.894;10.192;2023-02-04T08:15:17;5.10;53.20
40534;DHT22;26233;51.894;10.192;2023-02-04T08:17:44;5.20;53.50
40534;DHT22;26233;51.894;10.192;2023-02-04T08:20:11;5.40;53.80
40534;DHT22;26233;51.894;10.192;2023-02-04T08:22:38;5.40;53.60
40534;DHT22;26233;51.894;10.192;2023-02-04T08:25:08;5.50;53.50
40534;DHT22;26233;51.894;10.192;2023-02-04T08:27:36;5.60;53.30
40534;DHT22;26233;51.894;10.192;2023-02-04T08:30:03;5.60;53.10
40534;DHT22;26233;51.894;10.192;2023-02-04T08:32:31;5.70;53.60
40534;DHT22;26233;51.894;10.192;2023-02-04T08:34:58;5.70;53.00
40534;DHT22;26233;51.894;10.192;2023-02-04T08:37:25;5.70;53.00
40534;DHT22;26233;51.894;10.192;2023-02-04T08:39:52;5.70;53.00
40534;DHT22;26233;51.894;10.192;2023-02-04T08:42:21;5.80;53.20
40534;DHT22;26233;51.894;10.192;2023-02-04T08:44:48;5.80;53.20
40534;DHT22;26233;51.894;10.192;2023-02-04T08:47:16;5.90;53.40
40534;DHT22;26233;51.894;10.192;2023-02-04T08:49:43;6.00;53.50
40534;DHT22;26233;51.894;10.192;2023-02-04T08:52:10;6.00;53.40
40534;DHT22;26233;51.894;10.192;2023-02-04T08:54:37;6.10;53.60
40534;DHT22;26233;51.894;10.192;2023-02-04T08:57:04;6.20;53.80
40534;DHT22;26233;51.894;10.192;2023-02-04T08:59:32;6.30;54.00
40534;DHT22;26233;51.894;10.192;2023-02-04T09:01:59;6.40;53.90
40534;DHT22;26233;51.894;10.192;2023-02-04T09:04:27;6.60;54.50
40534;DHT22;26233;51.894;10.192;2023-02-04T09:06:54;6.80;55.30
40534;DHT22;26233;51.894;10.192;2023-02-04T09:09:21;7.10;55.40
40534;DHT22;26233;51.894;10.192;2023-02-04T09:11:48;7.30;55.30
40534;DHT22;26233;51.894;10.192;2023-02-04T09:14:15;7.50;55.00
40534;DHT22;26233;51.894;10.192;2023-02-04T09:16:44;7.80;55.40
40534;DHT22;26233;51.894;10.192;2023-02-04T09:19:11;8.00;55.70
40534;DHT22;26233;51.894;10.192;2023-02-04T09:21:40;8.30;55.80
40534;DHT22;26233;51.894;10.192;2023-02-04T09:24:08;8.60;55.70
40534;DHT22;26233;51.894;10.192;2023-02-04T09:26:35;8.90;56.00
40534;DHT22;26233;51.894;10.192;2023-02-04T09:29:01;9.20;55.90
40534;DHT22;26233;51.894;10.192;2023-02-04T09:31:29;9.40;54.90
40534;DHT22;26233;51.894;10.192;2023-02-04T09:33:57;9.70;55.60
40534;DHT22;26233;51.894;10.192;2023-02-04T09:36:25;10.00;55.20
40534;DHT22;26233;51.894;10.192;2023-02-04T09:38:55;10.30;54.80
40534;DHT22;26233;51.894;10.192;2023-02-04T09:41:22;10.40;53.00
40534;DHT22;26233;51.894;10.192;2023-02-04T09:43:49;10.40;52.00
40534;DHT22;26233;51.894;10.192;2023-02-04T09:46:19;10.40;51.40
40534;DHT22;26233;51.894;10.192;2023-02-04T09:48:47;10.30;50.80
40534;DHT22;26233;51.894;10.192;2023-02-04T09:51:19;10.10;50.50
40534;DHT22;26233;51.894;10.192;2023-02-04T09:53:47;10.10;50.70
40534;DHT22;26233;51.894;10.192;2023-02-04T09:56:18;10.20;52.20
40534;DHT22;26233;51.894;10.192;2023-02-04T09:58:45;10.30;52.90
40534;DHT22;26233;51.894;10.192;2023-02-04T10:01:15;10.50;52.90
40534;DHT22;26233;51.894;10.192;2023-02-04T10:03:44;10.60;52.00
40534;DHT22;26233;51.894;10.192;2023-02-04T10:06:13;10.70;51.50
40534;DHT22;26233;51.894;10.192;2023-02-04T10:08:43;10.60;50.70
40534;DHT22;26233;51.894;10.192;2023-02-04T10:11:12;10.40;49.80
40534;DHT22;26233;51.894;10.192;2023-02-04T10:13:42;10.20;49.20
40534;DHT22;26233;51.894;10.192;2023-02-04T10:16:13;10.00;49.10
40534;DHT22;26233;51.894;10.192;2023-02-04T10:18:41;9.80;50.10
40534;DHT22;26233;51.894;10.192;2023-02-04T10:21:16;9.60;50.20
40534;DHT22;26233;51.894;10.192;2023-02-04T10:23:47;9.40;49.90
40534;DHT22;26233;51.894;10.192;2023-02-04T10:26:15;9.30;50.10
40534;DHT22;26233;51.894;10.192;2023-02-04T10:28:43;9.10;49.90
40534;DHT22;26233;51.894;10.192;2023-02-04T10:31:28;9.00;50.10
40534;DHT22;26233;51.894;10.192;2023-02-04T10:34:09;8.90;50.00
40534;DHT22;26233;51.894;10.192;2023-02-04T10:36:40;9.00;51.50
40534;DHT22;26233;51.894;10.192;2023-02-04T10:39:12;9.30;53.80
40534;DHT22;26233;51.894;10.192;2023-02-04T10:41:45;9.80;55.40
40534;DHT22;26233;51.894;10.192;2023-02-04T10:44:15;10.20;53.90
40534;DHT22;26233;51.894;10.192;2023-02-04T10:46:43;10.50;53.10
40534;DHT22;26233;51.894;10.192;2023-02-04T10:49:18;10.80;52.30
40534;DHT22;26233;51.894;10.192;2023-02-04T10:51:49;10.90;51.20
40534;DHT22;26233;51.894;10.192;2023-02-04T10:54:19;10.90;50.80
40534;DHT22;26233;51.894;10.192;2023-02-04T10:56:56;10.90;50.30
40534;DHT22;26233;51.894;10.192;2023-02-04T10:59:25;10.80;49.90
40534;DHT22;26233;51.894;10.192;2023-02-04T11:01:54;10.70;49.40
40534;DHT22;26233;51.894;10.192;2023-02-04T11:04:22;10.70;49.10
40534;DHT22;26233;51.894;10.192;2023-02-04T11:06:51;10.50;48.80
40534;DHT22;26233;51.894;10.192;2023-02-04T11:09:19;10.40;48.70
40534;DHT22;26233;51.894;10.192;2023-02-04T11:11:47;10.30;48.70
40534;DHT22;26233;51.894;10.192;2023-02-04T11:14:23;10.20;48.50
40534;DHT22;26233;51.894;10.192;2023-02-04T11:16:53;10.10;48.20
40534;DHT22;26233;51.894;10.192;2023-02-04T11:19:35;10.00;48.40
40534;DHT22;26233;51.894;10.192;2023-02-04T11:22:07;9.90;48.90
40534;DHT22;26233;51.894;10.192;2023-02-04T11:24:46;10.00;49.50
40534;DHT22;26233;51.894;10.192;2023-02-04T11:27:23;10.10;50.70
40534;DHT22;26233;51.894;10.192;2023-02-04T11:29:51;10.30;49.90
40534;DHT22;26233;51.894;10.192;2023-02-04T11:32:33;10.40;49.70
40534;DHT22;26233;51.894;10.192;2023-02-04T11:37:51;10.60;48.90
40534;DHT22;26233;51.894;10.192;2023-02-04T11:40:27;10.50;48.70
40534;DHT22;26233;51.894;10.192;2023-02-04T11:43:01;10.50;48.10
40534;DHT22;26233;51.894;10.192;2023-02-04T11:45:32;10.40;48.20
40534;DHT22;26233;51.894;10.192;2023-02-04T11:48:01;10.40;48.50
40534;DHT22;26233;51.894;10.192;2023-02-04T11:50:32;10.30;48.50
40534;DHT22;26233;51.894;10.192;2023-02-04T11:53:04;10.40;48.50
40534;DHT22;26233;51.894;10.192;2023-02-04T11:55:34;10.40;48.20
40534;DHT22;26233;51.894;10.192;2023-02-04T11:58:02;10.40;48.30
40534;DHT22;26233;51.894;10.192;2023-02-04T12:00:31;10.50;48.60
40534;DHT22;26233;51.894;10.192;2023-02-04T12:03:00;10.60;48.70
40534;DHT22;26233;51.894;10.192;2023-02-04T12:05:41;10.60;48.80
40534;DHT22;26233;51.894;10.192;2023-02-04T12:08:12;10.60;48.20
40534;DHT22;26233;51.894;10.192;2023-02-04T12:11:00;10.60;48.20
40534;DHT22;26233;51.894;10.192;2023-02-04T12:13:30;10.70;47.80
40534;DHT22;26233;51.894;10.192;2023-02-04T12:15:59;10.80;48.60
40534;DHT22;26233;51.894;10.192;2023-02-04T12:18:27;10.90;49.00
40534;DHT22;26233;51.894;10.192;2023-02-04T12:20:55;11.00;49.60
40534;DHT22;26233;51.894;10.192;2023-02-04T12:23:24;11.30;50.50
40534;DHT22;26233;51.894;10.192;2023-02-04T12:25:52;11.60;50.40
40534;DHT22;26233;51.894;10.192;2023-02-04T12:28:19;11.90;50.80
40534;DHT22;26233;51.894;10.192;2023-02-04T12:30:46;12.20;50.70
40534;DHT22;26233;51.894;10.192;2023-02-04T12:33:14;12.40;50.00
40534;DHT22;26233;51.894;10.192;2023-02-04T12:35:41;12.50;48.80
40534;DHT22;26233;51.894;10.192;2023-02-04T12:38:08;12.40;47.70
40534;DHT22;26233;51.894;10.192;2023-02-04T12:40:37;12.20;47.00
40534;DHT22;26233;51.894;10.192;2023-02-04T12:43:04;12.10;46.80
40534;DHT22;26233;51.894;10.192;2023-02-04T12:45:32;12.20;47.20
40534;DHT22;26233;51.894;10.192;2023-02-04T12:48:00;12.20;47.40
40534;DHT22;26233;51.894;10.192;2023-02-04T12:50:27;12.20;48.10
40534;DHT22;26233;51.894;10.192;2023-02-04T12:52:55;12.30;48.50
40534;DHT22;26233;51.894;10.192;2023-02-04T12:55:24;12.30;47.90
40534;DHT22;26233;51.894;10.192;2023-02-04T12:57:54;12.40;48.00
40534;DHT22;26233;51.894;10.192;2023-02-04T13:00:21;12.50;48.50
40534;DHT22;26233;51.894;10.192;2023-02-04T13:02:49;12.40;47.30
40534;DHT22;26233;51.894;10.192;2023-02-04T13:05:16;12.40;46.70
40534;DHT22;26233;51.894;10.192;2023-02-04T13:07:44;12.30;46.30
40534;DHT22;26233;51.894;10.192;2023-02-04T13:10:12;12.10;46.10
40534;DHT22;26233;51.894;10.192;2023-02-04T13:12:39;12.00;45.70
40534;DHT22;26233;51.894;10.192;2023-02-04T13:15:09;11.90;45.60
40534;DHT22;26233;51.894;10.192;2023-02-04T13:17:36;11.80;45.90
40534;DHT22;26233;51.894;10.192;2023-02-04T13:20:03;11.80;46.50
40534;DHT22;26233;51.894;10.192;2023-02-04T13:22:31;11.80;46.70
40534;DHT22;26233;51.894;10.192;2023-02-04T13:24:58;11.90;47.20
40534;DHT22;26233;51.894;10.192;2023-02-04T13:27:25;12.10;47.50
40534;DHT22;26233;51.894;10.192;2023-02-04T13:29:52;12.20;47.20
40534;DHT22;26233;51.894;10.192;2023-02-04T13:32:21;12.40;47.40
40534;DHT22;26233;51.894;10.192;2023-02-04T13:34:48;12.50;47.10
40534;DHT22;26233;51.894;10.192;2023-02-04T13:37:15;12.60;46.90
40534;DHT22;26233;51.894;10.192;2023-02-04T13:39:42;12.60;46.70
40534;DHT22;26233;51.894;10.192;2023-02-04T13:42:09;12.60;46.70
40534;DHT22;26233;51.894;10.192;2023-02-04T13:44:36;12.50;45.40
40534;DHT22;26233;51.894;10.192;2023-02-04T13:47:03;12.40;44.90
40534;DHT22;26233;51.894;10.192;2023-02-04T13:49:32;12.30;45.10
40534;DHT22;26233;51.894;10.192;2023-02-04T13:51:59;12.20;45.30
40534;DHT22;26233;51.894;10.192;2023-02-04T13:54:26;12.20;45.80
40534;DHT22;26233;51.894;10.192;2023-02-04T13:56:53;12.20;45.90
40534;DHT22;26233;51.894;10.192;2023-02-04T13:59:20;12.20;45.90
40534;DHT22;26233;51.894;10.192;2023-02-04T14:01:47;12.20;45.70
40534;DHT22;26233;51.894;10.192;2023-02-04T14:04:14;12.30;45.70
40534;DHT22;26233;51.894;10.192;2023-02-04T14:06:42;12.30;45.60
40534;DHT22;26233;51.894;10.192;2023-02-04T14:09:10;12.30;45.60
40534;DHT22;26233;51.894;10.192;2023-02-04T14:11:37;12.30;45.40
40534;DHT22;26233;51.894;10.192;2023-02-04T14:14:05;12.30;45.50
40534;DHT22;26233;51.894;10.192;2023-02-04T14:16:32;12.30;45.30
40534;DHT22;26233;51.894;10.192;2023-02-04T14:18:59;12.30;45.20
40534;DHT22;26233;51.894;10.192;2023-02-04T14:21:26;12.40;45.30
40534;DHT22;26233;51.894;10.192;2023-02-04T14:23:55;12.40;45.20
40534;DHT22;26233;51.894;10.192;2023-02-04T14:26:22;12.40;45.30
40534;DHT22;26233;51.894;10.192;2023-02-04T14:28:49;12.40;45.40
40534;DHT22;26233;51.894;10.192;2023-02-04T14:31:16;12.40;45.20
40534;DHT22;26233;51.894;10.192;2023-02-04T14:33:43;12.40;45.10
40534;DHT22;26233;51.894;10.192;2023-02-04T14:36:10;12.40;44.80
40534;DHT22;26233;51.894;10.192;2023-02-04T14:38:37;12.40;44.70
40534;DHT22;26233;51.894;10.192;2023-02-04T14:41:05;12.40;44.70
40534;DHT22;26233;51.894;10.192;2023-02-04T14:43:32;12.30;44.40
40534;DHT22;26233;51.894;10.192;2023-02-04T14:46:02;12.30;44.30
40534;DHT22;26233;51.894;10.192;2023-02-04T14:48:30;12.20;43.90
40534;DHT22;26233;51.894;10.192;2023-02-04T14:50:57;12.00;43.50
40534;DHT22;26233;51.894;10.192;2023-02-04T14:53:24;11.90;43.10
40534;DHT22;26233;51.894;10.192;2023-02-04T14:55:51;11.70;43.30
40534;DHT22;26233;51.894;10.192;2023-02-04T14:58:19;11.60;43.10
40534;DHT22;26233;51.894;10.192;2023-02-04T15:00:46;11.50;43.10
40534;DHT22;26233;51.894;10.192;2023-02-04T15:03:13;11.30;43.20
40534;DHT22;26233;51.894;10.192;2023-02-04T15:05:40;11.20;43.30
40534;DHT22;26233;51.894;10.192;2023-02-04T15:08:07;11.00;43.20
40534;DHT22;26233;51.894;10.192;2023-02-04T15:10:35;10.90;43.30
40534;DHT22;26233;51.894;10.192;2023-02-04T15:13:02;10.90;43.20
40534;DHT22;26233;51.894;10.192;2023-02-04T15:15:30;10.80;43.40
40534;DHT22;26233;51.894;10.192;2023-02-04T15:17:57;10.70;43.30
40534;DHT22;26233;51.894;10.192;2023-02-04T15:20:24;10.50;43.20
40534;DHT22;26233;51.894;10.192;2023-02-04T15:22:51;10.50;43.30
40534;DHT22;26233;51.894;10.192;2023-02-04T15:25:21;10.30;43.10
40534;DHT22;26233;51.894;10.192;2023-02-04T15:27:48;10.20;43.10
40534;DHT22;26233;51.894;10.192;2023-02-04T15:30:16;10.10;43.10
40534;DHT22;26233;51.894;10.192;2023-02-04T15:32:45;10.00;42.90